createdAt,value
2022-12-22T00:01:30.788Z,-1.54
2022-12-22T00:04:19.299Z,-1.55
2022-12-22T00:07:07.656Z,-1.50
2022-12-22T00:09:55.962Z,-1.46
2022-12-22T00:12:44.185Z,-1.44
2022-12-22T00:15:33.659Z,-1.42
2022-12-22T00:18:21.863Z,-1.43
2022-12-22T00:21:10.214Z,-1.46
2022-12-22T00:23:58.617Z,-1.47
2022-12-22T00:26:46.860Z,-1.47
2022-12-22T00:29:35.464Z,-1.48
2022-12-22T00:32:23.920Z,-1.47
2022-12-22T00:35:12.320Z,-1.47
2022-12-22T00:38:00.621Z,-1.52
2022-12-22T00:40:48.653Z,-1.65
2022-12-22T00:43:36.840Z,-1.70
2022-12-22T00:46:27.375Z,-1.69
2022-12-22T00:49:15.709Z,-1.62
2022-12-22T00:52:03.906Z,-1.59
2022-12-22T00:54:51.756Z,-1.58
2022-12-22T00:57:39.999Z,-1.56
2022-12-22T01:00:33.319Z,-1.67
2022-12-22T01:03:21.462Z,-1.76
2022-12-22T01:06:09.852Z,-1.74
2022-12-22T01:08:57.965Z,-1.62
2022-12-22T01:11:46.151Z,-1.49
2022-12-22T01:14:34.588Z,-1.41
2022-12-22T01:17:22.867Z,-1.33
2022-12-22T01:20:11.133Z,-1.34
2022-12-22T01:22:59.688Z,-1.39
2022-12-22T01:25:47.961Z,-1.37
2022-12-22T01:28:35.912Z,-1.38
2022-12-22T01:31:30.060Z,-1.47
2022-12-22T01:34:18.334Z,-1.49
2022-12-22T01:37:06.544Z,-1.51
2022-12-22T01:39:54.677Z,-1.47
2022-12-22T01:42:43.050Z,-1.43
2022-12-22T01:45:36.944Z,-1.48
2022-12-22T01:48:25.776Z,-1.52
2022-12-22T01:51:14.111Z,-1.51
2022-12-22T01:54:02.380Z,-1.57
2022-12-22T01:56:50.202Z,-1.52
2022-12-22T01:59:38.551Z,-1.51
2022-12-22T02:02:27.075Z,-1.56
2022-12-22T02:05:15.702Z,-1.69
2022-12-22T02:08:10.349Z,-1.80
2022-12-22T02:11:09.418Z,-1.85
2022-12-22T02:13:58.667Z,-2.04
2022-12-22T02:16:48.477Z,-2.06
2022-12-22T02:19:38.896Z,-2.03
2022-12-22T02:22:29.077Z,-2.01
2022-12-22T02:25:19.143Z,-1.98
2022-12-22T02:28:07.506Z,-1.90
2022-12-22T02:30:55.835Z,-1.86
2022-12-22T02:33:44.027Z,-1.83
2022-12-22T02:36:33.151Z,-1.85
2022-12-22T02:39:23.483Z,-1.80
2022-12-22T02:42:13.494Z,-1.75
2022-12-22T02:45:04.371Z,-1.71
2022-12-22T02:47:53.134Z,-1.74
2022-12-22T02:50:41.846Z,-1.71
2022-12-22T02:53:30.013Z,-1.69
2022-12-22T02:56:18.797Z,-1.69
2022-12-22T02:59:07.036Z,-1.67
2022-12-22T03:01:55.246Z,-1.62
2022-12-22T03:04:43.453Z,-1.61
2022-12-22T03:07:31.672Z,-1.59
2022-12-22T03:10:19.809Z,-1.62
2022-12-22T03:13:08.024Z,-1.68
2022-12-22T03:15:56.423Z,-1.69
2022-12-22T03:18:44.683Z,-1.66
2022-12-22T03:21:33.050Z,-1.59
2022-12-22T03:24:20.995Z,-1.59
2022-12-22T03:26:51.648Z,-1.60
2022-12-22T03:29:22.333Z,-1.62
2022-12-22T03:31:53.218Z,-1.69
2022-12-22T03:34:24.019Z,-1.73
2022-12-22T03:36:54.739Z,-1.70
2022-12-22T03:39:25.530Z,-1.64
2022-12-22T03:42:13.601Z,-1.64
2022-12-22T03:45:02.006Z,-1.63
2022-12-22T03:47:33.578Z,-1.72
2022-12-22T03:50:04.390Z,-1.72
2022-12-22T03:52:35.161Z,-1.69
2022-12-22T03:55:06.054Z,-1.71
2022-12-22T03:57:36.667Z,-1.68
2022-12-22T04:00:09.102Z,-1.71
2022-12-22T04:02:40.074Z,-1.69
2022-12-22T04:05:11.284Z,-1.62
2022-12-22T04:07:42.082Z,-1.63
2022-12-22T04:10:30.118Z,-1.70
2022-12-22T04:13:00.893Z,-1.65
2022-12-22T04:15:32.293Z,-1.60
2022-12-22T04:18:03.180Z,-1.56
2022-12-22T04:20:33.967Z,-1.56
2022-12-22T04:23:04.982Z,-1.58
2022-12-22T04:25:35.653Z,-1.64
2022-12-22T04:28:06.534Z,-1.66
2022-12-22T04:30:37.301Z,-1.61
2022-12-22T04:33:07.975Z,-1.56
2022-12-22T04:35:38.642Z,-1.56
2022-12-22T04:38:09.423Z,-1.55
2022-12-22T04:40:40.252Z,-1.56
2022-12-22T04:43:11.036Z,-1.58
2022-12-22T04:45:41.741Z,-1.56
2022-12-22T04:48:12.651Z,-1.63
2022-12-22T04:50:43.815Z,-1.76
2022-12-22T04:53:14.563Z,-1.77
2022-12-22T04:55:47.819Z,-1.71
2022-12-22T04:58:18.484Z,-1.68
2022-12-22T05:00:49.276Z,-1.63
2022-12-22T05:03:20.281Z,-1.58
2022-12-22T05:05:52.006Z,-1.51
2022-12-22T05:08:22.993Z,-1.41
2022-12-22T05:10:53.923Z,-1.34
2022-12-22T05:13:24.843Z,-1.29
2022-12-22T05:15:55.753Z,-1.24
2022-12-22T05:18:26.642Z,-1.29
2022-12-22T05:20:57.361Z,-1.36
2022-12-22T05:23:28.180Z,-1.40
2022-12-22T05:25:59.117Z,-1.45
2022-12-22T05:28:29.967Z,-1.54
2022-12-22T05:31:03.900Z,-1.57
2022-12-22T05:33:34.860Z,-1.55
2022-12-22T05:36:06.705Z,-1.57
2022-12-22T05:38:37.476Z,-1.59
2022-12-22T05:41:08.690Z,-1.63
2022-12-22T05:43:40.386Z,-1.66
2022-12-22T05:46:12.846Z,-1.64
2022-12-22T05:48:43.777Z,-1.62
2022-12-22T05:51:14.685Z,-1.63
2022-12-22T05:53:45.645Z,-1.64
2022-12-22T05:56:16.388Z,-1.68
2022-12-22T05:58:47.731Z,-1.72
2022-12-22T06:01:18.430Z,-1.78
2022-12-22T06:03:51.254Z,-1.92
2022-12-22T06:06:25.430Z,-2.03
2022-12-22T06:08:56.239Z,-2.06
2022-12-22T06:11:27.042Z,-2.00
2022-12-22T06:13:57.743Z,-1.98
2022-12-22T06:16:28.740Z,-1.95
2022-12-22T06:18:59.668Z,-1.90
2022-12-22T06:21:31.311Z,-1.88
2022-12-22T06:24:02.102Z,-1.86
2022-12-22T06:26:32.854Z,-1.78
2022-12-22T06:29:03.494Z,-1.75
2022-12-22T06:31:34.409Z,-1.69
2022-12-22T06:34:05.825Z,-1.63
2022-12-22T06:36:36.657Z,-1.60
2022-12-22T06:39:07.682Z,-1.64
2022-12-22T06:41:55.698Z,-1.76
2022-12-22T06:44:30.737Z,-1.86
2022-12-22T06:47:02.794Z,-1.83
2022-12-22T06:49:33.672Z,-1.81
2022-12-22T06:52:04.830Z,-1.74
2022-12-22T06:54:35.567Z,-1.60
2022-12-22T06:57:06.310Z,-1.48
2022-12-22T06:59:37.297Z,-1.39
2022-12-22T07:02:09.493Z,-1.33
2022-12-22T07:04:41.679Z,-1.33
2022-12-22T07:07:12.493Z,-1.41
2022-12-22T07:09:43.285Z,-1.34
2022-12-22T07:12:14.462Z,-1.25
2022-12-22T07:14:45.984Z,-1.23
2022-12-22T07:17:17.101Z,-1.24
2022-12-22T07:19:49.371Z,-1.28
2022-12-22T07:22:27.575Z,-1.24
2022-12-22T07:25:00.836Z,-1.18
2022-12-22T07:27:37.412Z,-1.11
2022-12-22T07:30:09.864Z,-1.09
2022-12-22T07:32:42.698Z,-1.09
2022-12-22T07:35:15.396Z,-1.09
2022-12-22T07:37:52.860Z,-1.18
2022-12-22T07:40:25.181Z,-1.35
2022-12-22T07:42:59.932Z,-1.40
2022-12-22T07:45:36.842Z,-1.31
2022-12-22T07:48:29.516Z,-1.20
2022-12-22T07:51:05.398Z,-1.09
2022-12-22T07:53:40.451Z,-1.05
2022-12-22T07:56:13.849Z,-1.20
2022-12-22T07:58:47.544Z,-1.42
2022-12-22T08:01:27.361Z,-1.49
2022-12-22T08:04:00.933Z,-1.46
2022-12-22T08:06:32.775Z,-1.35
2022-12-22T08:09:04.899Z,-1.26
2022-12-22T08:11:37.286Z,-1.20
2022-12-22T08:14:11.752Z,-1.15
2022-12-22T08:16:45.195Z,-1.25
2022-12-22T08:19:18.488Z,-1.33
2022-12-22T08:21:52.775Z,-1.23
2022-12-22T08:31:23.867Z,-0.93
2022-12-22T08:33:54.938Z,-0.89
2022-12-22T08:36:25.960Z,-0.78
2022-12-22T08:38:57.043Z,-0.71
2022-12-22T08:41:41.828Z,-0.64
2022-12-22T08:44:12.731Z,-0.60
2022-12-22T08:46:43.669Z,-0.60
2022-12-22T08:49:14.598Z,-0.63
2022-12-22T08:51:45.731Z,-0.66
2022-12-22T09:01:20.419Z,-0.53
2022-12-22T09:03:52.157Z,-0.61
2022-12-22T09:06:27.247Z,-0.71
2022-12-22T09:08:59.229Z,-0.70
2022-12-22T09:11:30.643Z,-0.68
2022-12-22T09:14:02.112Z,-0.69
2022-12-22T09:16:34.157Z,-0.68
2022-12-22T09:19:05.215Z,-0.63
2022-12-22T09:21:36.460Z,-0.56
2022-12-22T09:24:08.634Z,-0.57
2022-12-22T09:26:39.553Z,-0.62
2022-12-22T09:29:10.951Z,-0.60
2022-12-22T09:31:43.029Z,-0.56
2022-12-22T09:34:18.038Z,-0.53
2022-12-22T09:36:49.482Z,-0.54
2022-12-22T09:39:25.117Z,-0.52
2022-12-22T09:41:59.664Z,-0.58
2022-12-22T09:44:32.963Z,-0.61
2022-12-22T09:47:18.218Z,-0.54
2022-12-22T09:49:49.028Z,-0.49
2022-12-22T09:52:29.052Z,-0.53
2022-12-22T09:54:59.933Z,-0.57
2022-12-22T09:57:32.275Z,-0.55
2022-12-22T10:00:08.175Z,-0.50
2022-12-22T10:02:41.481Z,-0.53
2022-12-22T10:05:19.421Z,-0.47
2022-12-22T10:07:50.658Z,-0.41
2022-12-22T10:10:25.500Z,-0.50
2022-12-22T10:13:00.211Z,-0.53
2022-12-22T10:15:35.119Z,-0.44
2022-12-22T10:18:12.379Z,-0.32
2022-12-22T10:20:46.772Z,-0.23
2022-12-22T10:23:21.388Z,-0.12
2022-12-22T10:26:32.192Z,0.03
2022-12-22T10:28:55.184Z,0.16
2022-12-22T10:31:29.425Z,0.23
2022-12-22T10:34:11.992Z,0.29
2022-12-22T10:36:48.611Z,0.38
2022-12-22T10:39:23.018Z,0.40
2022-12-22T10:42:01.756Z,0.45
2022-12-22T10:44:35.674Z,0.52
2022-12-22T10:47:17.722Z,0.57
2022-12-22T10:52:33.810Z,0.64
2022-12-22T10:55:22.178Z,0.73
2022-12-22T10:58:12.708Z,0.71
2022-12-22T11:00:45.028Z,0.73
2022-12-22T11:03:53.318Z,0.71
2022-12-22T11:06:24.254Z,0.72
2022-12-22T11:09:01.517Z,0.78
2022-12-22T11:11:49.844Z,0.87
2022-12-22T11:14:24.278Z,0.96
2022-12-22T11:16:56.951Z,1.01
2022-12-22T11:19:34.004Z,1.02
2022-12-22T11:22:06.931Z,0.99
2022-12-22T11:24:40.430Z,0.84
2022-12-22T11:27:18.132Z,0.72
2022-12-22T11:30:04.889Z,0.68
2022-12-22T11:32:52.081Z,0.84
2022-12-22T11:35:27.531Z,0.95
2022-12-22T11:38:01.266Z,0.99
2022-12-22T11:40:33.449Z,1.01
2022-12-22T11:43:07.697Z,0.94
2022-12-22T11:45:43.568Z,0.93
2022-12-22T11:48:36.283Z,1.02
2022-12-22T11:51:12.804Z,1.12
2022-12-22T11:53:55.714Z,1.17
2022-12-22T11:56:26.710Z,1.11
2022-12-22T11:59:04.235Z,1.07
2022-12-22T12:01:49.853Z,1.07
2022-12-22T12:04:52.957Z,1.06
2022-12-22T12:07:27.536Z,0.95
2022-12-22T12:10:03.983Z,0.93
2022-12-22T12:12:36.467Z,0.92
2022-12-22T12:15:12.727Z,0.95
2022-12-22T12:17:46.367Z,1.02
2022-12-22T12:20:37.846Z,1.10
2022-12-22T12:23:11.713Z,1.20
2022-12-22T12:25:42.750Z,1.25
2022-12-22T12:28:20.037Z,1.19
2022-12-22T12:30:54.021Z,0.87
2022-12-22T12:33:27.493Z,0.71
2022-12-22T12:36:01.026Z,0.73
2022-12-22T12:39:06.437Z,0.58
2022-12-22T12:41:26.545Z,0.50
2022-12-22T12:43:58.158Z,0.53
2022-12-22T12:46:51.474Z,0.67
2022-12-22T12:49:39.550Z,0.78
2022-12-22T12:52:10.767Z,0.81
2022-12-22T12:54:46.671Z,0.91
2022-12-22T12:57:31.910Z,0.96
2022-12-22T13:00:02.857Z,0.97
2022-12-22T13:02:39.301Z,1.00
2022-12-22T13:05:29.415Z,0.93
2022-12-22T13:11:52.649Z,0.92
2022-12-22T13:14:35.487Z,0.92
2022-12-22T13:17:19.933Z,0.91
2022-12-22T13:20:08.571Z,0.91
2022-12-22T13:22:43.651Z,1.04
2022-12-22T13:25:19.504Z,1.10
2022-12-22T13:27:56.094Z,1.07
2022-12-22T13:30:27.121Z,0.98
2022-12-22T13:33:05.448Z,0.95
2022-12-22T13:43:11.758Z,1.36
2022-12-22T13:45:43.023Z,1.43
2022-12-22T13:48:22.479Z,1.48
2022-12-22T13:50:54.317Z,1.51
2022-12-22T13:56:21.940Z,1.54
2022-12-22T13:58:54.659Z,1.56
2022-12-22T14:01:25.581Z,1.55
2022-12-22T14:04:01.762Z,1.53
2022-12-22T14:06:34.236Z,1.48
2022-12-22T14:09:15.454Z,1.47
2022-12-22T14:11:51.698Z,1.42
2022-12-22T14:14:28.118Z,1.38
2022-12-22T14:16:59.566Z,1.36
2022-12-22T14:19:32.175Z,1.33
2022-12-22T14:22:05.304Z,1.30
2022-12-22T14:24:38.619Z,1.31
2022-12-22T14:27:10.766Z,1.32
2022-12-22T14:29:41.512Z,1.40
2022-12-22T14:32:12.503Z,1.46
2022-12-22T14:34:43.386Z,1.51
2022-12-22T14:37:14.151Z,1.54
2022-12-22T14:39:45.027Z,1.55
2022-12-22T14:42:15.835Z,1.54
2022-12-22T14:44:47.267Z,1.51
2022-12-22T14:47:19.747Z,1.47
2022-12-22T14:49:51.701Z,1.43
2022-12-22T14:52:26.828Z,1.34
2022-12-22T14:54:58.002Z,1.28
2022-12-22T14:57:32.610Z,1.19
2022-12-22T15:00:05.729Z,1.10
2022-12-22T15:02:39.860Z,1.05
2022-12-22T15:05:14.481Z,1.03
2022-12-22T15:10:39.402Z,0.92
2022-12-22T15:13:12.471Z,0.98
2022-12-22T15:15:46.635Z,1.06
2022-12-22T15:18:51.782Z,1.11
2022-12-22T15:21:31.493Z,1.13
2022-12-22T15:25:40.180Z,1.16
2022-12-22T15:27:05.829Z,1.19
2022-12-22T15:29:38.831Z,1.17
2022-12-22T15:32:26.541Z,1.13
2022-12-22T15:34:58.641Z,1.12
2022-12-22T15:37:29.675Z,1.01
2022-12-22T15:40:00.569Z,0.95
2022-12-22T15:42:33.027Z,0.88
2022-12-22T15:45:09.673Z,0.77
2022-12-22T15:51:47.045Z,0.98
2022-12-22T15:58:44.975Z,0.87
2022-12-22T16:01:24.970Z,0.89
2022-12-22T16:04:18.601Z,0.91
2022-12-22T16:06:52.855Z,0.84
2022-12-22T16:09:25.333Z,0.69
2022-12-22T16:11:57.052Z,0.66
2022-12-22T16:14:30.245Z,0.75
2022-12-22T16:17:04.681Z,0.82
2022-12-22T16:19:35.537Z,0.86
2022-12-22T16:22:06.218Z,0.95
2022-12-22T16:24:42.149Z,1.03
2022-12-22T16:27:29.045Z,1.05
2022-12-22T16:30:03.248Z,1.04
2022-12-22T16:32:34.563Z,1.01
2022-12-22T16:35:15.256Z,1.00
2022-12-22T16:37:46.076Z,0.98
2022-12-22T16:40:18.302Z,0.96
2022-12-22T16:45:39.191Z,0.89
2022-12-22T16:48:13.314Z,0.78
2022-12-22T16:50:45.582Z,0.71
2022-12-22T16:53:16.546Z,0.71
2022-12-22T16:55:47.198Z,0.78
2022-12-22T16:58:17.914Z,0.89
2022-12-22T17:00:48.780Z,0.96
2022-12-22T17:03:20.416Z,1.04
2022-12-22T17:05:52.124Z,1.12
2022-12-22T17:08:24.015Z,1.17
2022-12-22T17:10:54.993Z,1.12
2022-12-22T17:13:27.389Z,0.96
2022-12-22T17:15:58.430Z,0.83
2022-12-22T17:18:45.970Z,0.74
2022-12-22T17:24:38.935Z,0.65
2022-12-22T17:27:09.549Z,0.60
2022-12-22T17:29:40.510Z,0.56
2022-12-22T17:32:12.202Z,0.49
2022-12-22T17:34:43.034Z,0.42
2022-12-22T17:37:16.598Z,0.39
2022-12-22T17:39:47.775Z,0.32
2022-12-22T17:42:21.902Z,0.33
2022-12-22T17:44:53.052Z,0.33
2022-12-22T17:47:32.265Z,0.40
2022-12-22T17:50:04.438Z,0.37
2022-12-22T17:52:35.252Z,0.31
2022-12-22T17:55:06.721Z,0.24
2022-12-22T17:57:37.727Z,0.22
2022-12-22T18:00:17.906Z,0.15
2022-12-22T18:02:49.522Z,0.10
2022-12-22T18:05:21.331Z,0.14
2022-12-22T18:07:52.215Z,0.19
2022-12-22T18:10:25.929Z,0.22
2022-12-22T18:12:57.634Z,0.20
2022-12-22T18:15:30.744Z,0.21
2022-12-22T18:18:02.060Z,0.23
2022-12-22T18:20:32.984Z,0.30
2022-12-22T18:23:03.750Z,0.35
2022-12-22T18:25:34.527Z,0.40
2022-12-22T18:28:05.604Z,0.33
2022-12-22T18:30:37.142Z,0.23
2022-12-22T18:33:08.404Z,0.20
2022-12-22T18:35:49.922Z,0.21
2022-12-22T18:39:32.093Z,0.17
2022-12-22T18:41:59.550Z,0.11
2022-12-22T18:44:31.780Z,0.08
2022-12-22T18:47:13.110Z,0.07
2022-12-22T18:49:46.095Z,0.13
2022-12-22T18:52:46.306Z,0.23
2022-12-22T18:55:26.420Z,0.34
2022-12-22T18:57:58.328Z,0.42
2022-12-22T19:00:30.417Z,0.44
2022-12-22T19:03:05.376Z,0.46
2022-12-22T19:05:41.411Z,0.47
2022-12-22T19:08:14.074Z,0.44
2022-12-22T19:10:46.422Z,0.45
2022-12-22T19:13:21.831Z,0.40
2022-12-22T19:15:52.722Z,0.36
2022-12-22T19:18:27.020Z,0.32
2022-12-22T19:20:58.402Z,0.35
2022-12-22T19:23:29.187Z,0.29
2022-12-22T19:26:08.065Z,0.21
2022-12-22T19:28:40.353Z,0.21
2022-12-22T19:31:13.190Z,0.21
2022-12-22T19:33:44.435Z,0.22
2022-12-22T19:36:16.663Z,0.29
2022-12-22T19:38:50.830Z,0.34
2022-12-22T19:41:27.524Z,0.38
2022-12-22T19:43:58.383Z,0.40
2022-12-22T19:46:32.714Z,0.41
2022-12-22T19:49:49.027Z,0.44
2022-12-22T19:53:02.853Z,0.43
2022-12-22T19:56:04.666Z,0.43
2022-12-22T19:58:37.640Z,0.45
2022-12-22T20:01:11.728Z,0.44
2022-12-22T20:03:42.555Z,0.42
2022-12-22T20:06:13.217Z,0.42
2022-12-22T20:08:44.785Z,0.43
2022-12-22T20:11:16.606Z,0.34
2022-12-22T20:13:47.616Z,0.33
2022-12-22T20:16:18.543Z,0.26
2022-12-22T20:18:49.483Z,0.21
2022-12-22T20:21:22.452Z,0.27
2022-12-22T20:23:53.200Z,0.22
2022-12-22T20:26:25.073Z,0.17
2022-12-22T20:28:55.951Z,0.16
2022-12-22T20:31:26.822Z,0.07
2022-12-22T20:34:16.312Z,0.03
2022-12-22T20:37:06.102Z,0.05
2022-12-22T20:40:00.178Z,0.16
2022-12-22T20:42:38.080Z,0.24
2022-12-22T20:45:10.567Z,0.32
2022-12-22T20:47:43.376Z,0.33
2022-12-22T20:50:24.288Z,0.34
2022-12-22T20:52:55.886Z,0.39
2022-12-22T20:55:42.696Z,0.42
2022-12-22T20:58:17.141Z,0.40
2022-12-22T21:00:48.600Z,0.39
2022-12-22T21:03:19.788Z,0.42
2022-12-22T21:05:50.906Z,0.42
2022-12-22T21:08:22.488Z,0.34
2022-12-22T21:10:53.976Z,0.21
2022-12-22T21:13:24.756Z,0.08
2022-12-22T21:15:55.523Z,0.10
2022-12-22T21:18:26.257Z,0.12
2022-12-22T21:20:57.245Z,0.13
2022-12-22T21:23:28.140Z,0.13
2022-12-22T21:25:58.886Z,0.12
2022-12-22T21:28:31.356Z,0.08
2022-12-22T21:31:02.418Z,0.07
2022-12-22T21:33:33.294Z,0.06
2022-12-22T21:36:04.629Z,0.06
2022-12-22T21:38:35.389Z,0.07
2022-12-22T21:41:07.330Z,0.07
2022-12-22T21:43:38.269Z,0.04
2022-12-22T21:46:11.834Z,0.00
2022-12-22T21:48:42.680Z,-0.04
2022-12-22T21:51:14.233Z,-0.10
2022-12-22T21:53:45.019Z,-0.11
2022-12-22T21:56:19.066Z,-0.17
2022-12-22T21:58:49.967Z,-0.20
2022-12-22T22:01:20.962Z,-0.23
2022-12-22T22:03:52.004Z,-0.19
2022-12-22T22:06:22.885Z,-0.11
2022-12-22T22:08:53.662Z,-0.09
2022-12-22T22:11:25.767Z,-0.14
2022-12-22T22:13:56.531Z,-0.14
2022-12-22T22:16:27.393Z,-0.14
2022-12-22T22:18:58.174Z,-0.12
2022-12-22T22:21:28.915Z,-0.07
2022-12-22T22:23:59.757Z,0.03
2022-12-22T22:26:30.407Z,0.15
2022-12-22T22:29:01.161Z,0.24
2022-12-22T22:31:31.938Z,0.29
2022-12-22T22:34:02.609Z,0.33
2022-12-22T22:36:33.373Z,0.33
2022-12-22T22:39:04.089Z,0.27
2022-12-22T22:41:40.983Z,0.25
2022-12-22T22:44:13.695Z,0.30
2022-12-22T22:46:44.634Z,0.32
2022-12-22T22:49:15.630Z,0.41
2022-12-22T22:51:46.400Z,0.50
2022-12-22T22:54:17.238Z,0.57
2022-12-22T22:56:47.947Z,0.52
2022-12-22T22:59:18.687Z,0.45
2022-12-22T23:01:49.555Z,0.46
2022-12-22T23:04:20.287Z,0.40
2022-12-22T23:06:51.277Z,0.40
2022-12-22T23:09:22.000Z,0.44
2022-12-22T23:11:53.601Z,0.49
2022-12-22T23:14:25.768Z,0.52
2022-12-22T23:16:56.672Z,0.55
2022-12-22T23:19:27.477Z,0.55
2022-12-22T23:21:58.168Z,0.50
2022-12-22T23:24:28.805Z,0.50
2022-12-22T23:26:59.960Z,0.56
2022-12-22T23:29:30.707Z,0.62
2022-12-22T23:32:01.632Z,0.68
2022-12-22T23:34:32.484Z,0.67
2022-12-22T23:37:03.367Z,0.63
2022-12-22T23:39:33.959Z,0.55
2022-12-22T23:42:05.003Z,0.51
2022-12-22T23:44:35.724Z,0.49
2022-12-22T23:47:07.128Z,0.41
2022-12-22T23:49:37.937Z,0.35
2022-12-22T23:52:08.657Z,0.41
2022-12-22T23:54:39.545Z,0.53
2022-12-22T23:57:10.376Z,0.61
2022-12-22T23:59:41.111Z,0.72
